createdAt,value
2022-08-16T00:02:24.931Z,24.16
2022-08-16T00:04:53.005Z,24.14
2022-08-16T00:07:22.325Z,24.07
2022-08-16T00:09:52.099Z,24.04
2022-08-16T00:12:20.049Z,24.01
2022-08-16T00:14:48.755Z,23.97
2022-08-16T00:17:19.145Z,23.91
2022-08-16T00:19:49.089Z,23.88
2022-08-16T00:22:27.889Z,23.82
2022-08-16T00:24:56.163Z,23.80
2022-08-16T00:27:25.376Z,23.79
2022-08-16T00:30:00.761Z,23.73
2022-08-16T00:32:38.868Z,23.69
2022-08-16T00:35:34.921Z,23.67
2022-08-16T00:38:40.322Z,23.64
2022-08-16T00:40:55.124Z,23.64
2022-08-16T00:43:48.115Z,23.64
2022-08-16T00:46:33.878Z,23.59
2022-08-16T00:49:18.827Z,23.59
2022-08-16T00:51:54.968Z,23.60
2022-08-16T00:54:30.980Z,23.66
2022-08-16T00:57:07.593Z,23.69
2022-08-16T00:59:58.964Z,23.69
2022-08-16T01:02:31.944Z,23.71
2022-08-16T01:05:09.707Z,23.69
2022-08-16T01:07:49.804Z,23.72
2022-08-16T01:10:31.848Z,23.72
2022-08-16T01:13:12.106Z,23.69
2022-08-16T01:15:44.320Z,23.68
2022-08-16T01:18:39.234Z,23.65
2022-08-16T01:21:33.838Z,23.65
2022-08-16T01:24:53.722Z,23.61
2022-08-16T01:27:27.693Z,23.56
2022-08-16T01:30:19.336Z,23.57
2022-08-16T01:33:01.862Z,23.47
2022-08-16T01:35:41.570Z,23.51
2022-08-16T01:38:25.710Z,23.50
2022-08-16T01:41:01.928Z,23.49
2022-08-16T01:43:33.195Z,23.48
2022-08-16T01:46:37.520Z,23.47
2022-08-16T01:49:02.166Z,23.47
2022-08-16T01:51:30.939Z,23.48
2022-08-16T01:54:00.942Z,23.44
2022-08-16T01:56:36.068Z,23.43
2022-08-16T01:59:30.649Z,23.45
2022-08-16T02:02:01.177Z,23.45
2022-08-16T02:05:00.406Z,23.47
2022-08-16T02:07:30.695Z,23.46
2022-08-16T02:09:59.806Z,23.44
2022-08-16T02:13:13.115Z,23.46
2022-08-16T02:15:43.896Z,23.45
2022-08-16T02:18:17.487Z,23.47
2022-08-16T02:20:53.574Z,23.48
2022-08-16T02:23:24.322Z,23.47
2022-08-16T02:25:54.720Z,23.46
2022-08-16T02:28:27.211Z,23.47
2022-08-16T02:30:58.184Z,23.49
2022-08-16T02:33:43.432Z,23.51
2022-08-16T02:36:48.221Z,23.48
2022-08-16T02:39:11.875Z,23.45
2022-08-16T02:41:53.170Z,23.45
2022-08-16T02:44:27.028Z,23.43
2022-08-16T02:46:58.510Z,23.40
2022-08-16T02:49:58.091Z,23.39
2022-08-16T02:52:46.415Z,23.39
2022-08-16T03:02:32.163Z,23.26
2022-08-16T03:11:18.007Z,23.20
2022-08-16T03:13:56.682Z,23.20
2022-08-16T03:16:37.860Z,23.16
2022-08-16T03:19:10.625Z,23.11
2022-08-16T03:21:40.634Z,23.09
2022-08-16T03:24:29.127Z,23.04
2022-08-16T03:27:03.153Z,23.02
2022-08-16T03:30:00.649Z,23.00
2022-08-16T03:32:31.161Z,22.93
2022-08-16T03:35:00.243Z,22.97
2022-08-16T03:37:28.842Z,23.00
2022-08-16T03:40:02.632Z,23.04
2022-08-16T03:43:19.071Z,23.09
2022-08-16T03:45:52.762Z,23.07
2022-08-16T03:48:49.486Z,23.11
2022-08-16T03:54:17.604Z,23.05
2022-08-16T03:56:57.254Z,22.98
2022-08-16T03:59:30.301Z,22.94
2022-08-16T04:11:26.741Z,22.92
2022-08-16T04:23:55.333Z,23.02
2022-08-16T04:26:24.011Z,23.01
2022-08-16T04:29:17.146Z,22.98
2022-08-16T04:31:56.557Z,23.02
2022-08-16T04:34:32.270Z,23.02
2022-08-16T04:37:02.572Z,23.00
2022-08-16T04:39:44.875Z,23.01
2022-08-16T04:42:17.929Z,23.01
2022-08-16T04:44:53.719Z,23.05
2022-08-16T04:47:35.845Z,23.11
2022-08-16T04:50:16.160Z,23.13
2022-08-16T04:53:04.963Z,23.22
2022-08-16T04:55:41.266Z,23.33
2022-08-16T04:58:44.763Z,23.36
2022-08-16T05:01:00.623Z,23.42
2022-08-16T05:03:30.073Z,23.52
2022-08-16T05:06:05.141Z,23.60
2022-08-16T05:08:35.607Z,23.66
2022-08-16T05:11:15.006Z,23.72
2022-08-16T05:16:30.109Z,23.93
2022-08-16T05:19:16.298Z,23.99
2022-08-16T05:22:04.535Z,24.09
2022-08-16T05:24:36.284Z,24.19
2022-08-16T05:27:11.516Z,24.21
2022-08-16T05:29:57.738Z,24.25
2022-08-16T05:32:32.543Z,24.38
2022-08-16T05:35:11.436Z,24.46
2022-08-16T05:37:46.265Z,24.51
2022-08-16T05:40:16.645Z,24.58
2022-08-16T05:42:47.742Z,24.64
2022-08-16T05:45:21.489Z,24.69
2022-08-16T05:48:00.347Z,24.69
2022-08-16T05:50:52.968Z,24.63
2022-08-16T05:53:24.207Z,24.68
2022-08-16T05:56:19.453Z,24.66
2022-08-16T05:58:51.073Z,24.71
2022-08-16T06:01:20.386Z,24.79
2022-08-16T06:16:00.474Z,25.42
2022-08-16T06:18:28.779Z,25.24
2022-08-16T06:20:57.686Z,25.28
2022-08-16T06:23:28.703Z,25.37
2022-08-16T06:26:07.721Z,25.50
2022-08-16T06:28:42.147Z,25.62
2022-08-16T06:31:24.994Z,25.68
2022-08-16T06:33:55.173Z,25.76
2022-08-16T06:36:26.821Z,25.86
2022-08-16T06:39:18.049Z,25.88
2022-08-16T06:42:06.359Z,25.99
2022-08-16T06:44:43.330Z,26.12
2022-08-16T06:47:52.366Z,26.26
2022-08-16T06:50:28.319Z,26.40
2022-08-16T06:53:07.340Z,26.55
2022-08-16T06:55:43.374Z,26.77
2022-08-16T06:58:22.003Z,26.95
2022-08-16T07:00:59.948Z,27.02
2022-08-16T07:03:32.750Z,27.17
2022-08-16T07:06:21.718Z,27.38
2022-08-16T07:08:56.866Z,27.60
2022-08-16T07:11:45.950Z,27.71
2022-08-16T07:14:25.882Z,27.73
2022-08-16T07:17:25.004Z,27.74
2022-08-16T07:20:02.850Z,27.73
2022-08-16T07:22:58.988Z,27.70
2022-08-16T07:25:47.738Z,27.72
2022-08-16T07:28:20.583Z,27.74
2022-08-16T07:30:49.360Z,27.55
2022-08-16T07:33:52.173Z,27.35
2022-08-16T07:36:41.616Z,27.30
2022-08-16T07:39:14.339Z,27.38
2022-08-16T07:41:44.522Z,27.57
2022-08-16T07:44:16.133Z,27.81
2022-08-16T07:46:46.000Z,27.96
2022-08-16T07:49:23.691Z,28.05
2022-08-16T07:51:54.298Z,27.93
2022-08-16T07:54:37.727Z,28.01
2022-08-16T07:57:11.978Z,28.24
2022-08-16T07:59:46.611Z,28.43
2022-08-16T08:02:43.561Z,28.49
2022-08-16T08:05:18.999Z,28.50
2022-08-16T08:08:01.019Z,28.41
2022-08-16T08:10:33.394Z,28.32
2022-08-16T08:13:02.599Z,28.26
2022-08-16T08:15:57.596Z,28.12
2022-08-16T08:18:30.017Z,27.92
2022-08-16T08:21:00.263Z,27.88
2022-08-16T08:23:42.462Z,27.98
2022-08-16T08:26:17.546Z,28.00
2022-08-16T08:28:46.733Z,28.00
2022-08-16T08:31:17.161Z,28.06
2022-08-16T08:33:47.531Z,28.23
2022-08-16T08:36:45.168Z,28.50
2022-08-16T08:39:23.715Z,28.63
2022-08-16T08:41:52.633Z,28.56
2022-08-16T08:44:48.369Z,28.68
2022-08-16T08:47:16.966Z,28.69
2022-08-16T08:49:55.526Z,28.85
2022-08-16T08:52:34.190Z,28.99
2022-08-16T08:55:10.851Z,29.14
2022-08-16T08:57:44.998Z,29.06
2022-08-16T09:00:33.257Z,29.06
2022-08-16T09:03:21.439Z,28.96
2022-08-16T09:05:51.860Z,28.96
2022-08-16T09:08:22.155Z,28.96
2022-08-16T09:11:03.128Z,28.84
2022-08-16T09:13:33.428Z,28.72
2022-08-16T09:16:02.550Z,28.66
2022-08-16T09:19:00.807Z,28.69
2022-08-16T09:21:32.350Z,28.60
2022-08-16T09:24:09.864Z,28.63
2022-08-16T09:26:46.068Z,28.76
2022-08-16T09:29:24.090Z,28.82
2022-08-16T09:32:07.627Z,28.86
2022-08-16T09:34:36.199Z,28.99
2022-08-16T09:37:17.679Z,29.07
2022-08-16T09:39:50.242Z,29.18
2022-08-16T09:42:18.921Z,29.25
2022-08-16T09:45:13.190Z,29.32
2022-08-16T09:47:57.455Z,29.35
2022-08-16T09:50:52.308Z,29.52
2022-08-16T09:53:24.699Z,29.59
2022-08-16T09:55:56.954Z,29.69
2022-08-16T09:58:37.666Z,29.77
2022-08-16T10:01:11.201Z,29.86
2022-08-16T10:04:02.864Z,29.96
2022-08-16T10:06:33.385Z,30.08
2022-08-16T10:09:06.879Z,30.18
2022-08-16T10:11:55.893Z,30.25
2022-08-16T10:14:40.879Z,30.22
2022-08-16T10:17:14.642Z,30.20
2022-08-16T10:19:43.144Z,30.25
2022-08-16T10:22:12.887Z,30.25
2022-08-16T10:24:55.815Z,30.23
2022-08-16T10:27:47.043Z,30.30
2022-08-16T10:30:25.314Z,30.35
2022-08-16T10:33:20.831Z,30.40
2022-08-16T10:35:48.974Z,30.37
2022-08-16T10:38:27.622Z,30.41
2022-08-16T10:40:56.372Z,30.45
2022-08-16T10:43:25.374Z,30.51
2022-08-16T10:46:00.975Z,30.57
2022-08-16T10:48:31.246Z,30.54
2022-08-16T10:50:59.475Z,30.58
2022-08-16T10:53:34.049Z,30.58
2022-08-16T10:56:51.908Z,30.63
2022-08-16T10:59:32.649Z,30.66
2022-08-16T11:02:21.873Z,30.67
2022-08-16T11:07:45.585Z,30.62
2022-08-16T11:10:57.181Z,30.50
2022-08-16T11:16:00.952Z,30.52
2022-08-16T11:19:04.009Z,30.45
2022-08-16T11:24:41.997Z,30.16
2022-08-16T11:27:24.088Z,30.10
2022-08-16T11:30:01.012Z,30.03
2022-08-16T11:32:33.541Z,30.01
2022-08-16T11:35:44.045Z,30.02
2022-08-16T11:38:46.978Z,29.90
2022-08-16T11:41:08.969Z,29.82
2022-08-16T11:43:41.913Z,29.79
2022-08-16T11:46:44.706Z,29.78
2022-08-16T11:49:12.747Z,29.71
2022-08-16T11:51:44.533Z,29.92
2022-08-16T11:54:20.897Z,30.15
2022-08-16T11:56:57.341Z,30.36
2022-08-16T11:59:29.470Z,30.41
2022-08-16T12:01:59.934Z,30.53
2022-08-16T12:04:36.254Z,30.65
2022-08-16T12:07:08.407Z,30.70
2022-08-16T12:09:43.184Z,30.79
2022-08-16T12:12:11.435Z,30.90
2022-08-16T12:14:39.823Z,30.99
2022-08-16T12:17:08.351Z,30.99
2022-08-16T12:19:36.387Z,30.99
2022-08-16T12:22:19.598Z,30.62
2022-08-16T12:24:52.103Z,30.24
2022-08-16T12:27:25.487Z,30.12
2022-08-16T12:30:27.061Z,29.81
2022-08-16T12:33:03.701Z,29.87
2022-08-16T12:35:33.073Z,29.90
2022-08-16T12:38:38.213Z,29.83
2022-08-16T12:40:52.905Z,29.90
2022-08-16T12:43:23.586Z,30.02
2022-08-16T12:45:52.984Z,30.01
2022-08-16T12:49:00.514Z,29.99
2022-08-16T12:51:59.935Z,29.97
2022-08-16T12:54:25.514Z,29.92
2022-08-16T12:56:53.294Z,29.93
2022-08-16T12:59:23.766Z,29.91
2022-08-16T13:01:55.475Z,29.96
2022-08-16T13:04:33.354Z,30.00
2022-08-16T13:09:42.599Z,30.07
2022-08-16T13:12:20.997Z,30.04
2022-08-16T13:14:50.679Z,29.93
2022-08-16T13:17:22.463Z,29.77
2022-08-16T13:20:11.509Z,29.69
2022-08-16T13:22:52.255Z,29.48
2022-08-16T13:25:27.886Z,29.51
2022-08-16T13:28:01.653Z,29.49
2022-08-16T13:30:44.772Z,29.66
2022-08-16T13:33:25.997Z,29.80
2022-08-16T13:35:59.867Z,29.89
2022-08-16T13:38:37.065Z,29.94
2022-08-16T13:41:12.593Z,30.00
2022-08-16T13:43:42.275Z,29.90
2022-08-16T13:46:10.134Z,29.90
2022-08-16T13:48:43.948Z,29.82
2022-08-16T13:51:18.756Z,29.76
2022-08-16T13:53:54.676Z,29.74
2022-08-16T13:56:37.394Z,29.79
2022-08-16T13:59:29.566Z,29.85
2022-08-16T14:02:04.307Z,29.81
2022-08-16T14:04:36.526Z,29.79
2022-08-16T14:07:10.194Z,29.80
2022-08-16T14:09:39.500Z,29.88
2022-08-16T14:12:26.977Z,29.99
2022-08-16T14:14:57.320Z,30.06
2022-08-16T14:17:27.065Z,30.22
2022-08-16T14:20:00.037Z,30.29
2022-08-16T14:22:35.855Z,30.22
2022-08-16T14:25:16.577Z,30.24
2022-08-16T14:27:47.372Z,30.37
2022-08-16T14:30:19.733Z,30.43
2022-08-16T14:32:50.854Z,30.32
2022-08-16T14:35:48.234Z,30.19
2022-08-16T14:38:23.538Z,30.02
2022-08-16T14:40:54.990Z,29.91
2022-08-16T14:43:26.043Z,29.86
2022-08-16T14:46:01.738Z,29.77
2022-08-16T14:48:39.241Z,29.67
2022-08-16T14:51:07.625Z,29.63
2022-08-16T14:53:46.118Z,29.57
2022-08-16T14:56:38.751Z,29.56
2022-08-16T14:59:08.676Z,29.48
2022-08-16T15:01:58.649Z,29.38
2022-08-16T15:04:40.068Z,29.22
2022-08-16T15:10:00.340Z,29.18
2022-08-16T15:12:36.382Z,29.16
2022-08-16T15:18:23.481Z,29.15
2022-08-16T15:21:14.004Z,29.08
2022-08-16T15:23:42.377Z,29.13
2022-08-16T15:26:13.638Z,29.09
2022-08-16T15:29:00.440Z,29.06
2022-08-16T15:31:28.396Z,29.11
2022-08-16T15:33:58.178Z,29.14
2022-08-16T15:36:26.477Z,29.14
2022-08-16T15:39:07.058Z,29.13
2022-08-16T15:41:46.863Z,29.12
2022-08-16T15:44:22.677Z,29.16
2022-08-16T15:46:55.471Z,29.20
2022-08-16T15:49:37.565Z,29.22
2022-08-16T15:52:30.401Z,29.22
2022-08-16T15:55:23.991Z,29.24
2022-08-16T15:57:58.870Z,29.27
2022-08-16T16:00:37.469Z,29.25
2022-08-16T16:03:26.965Z,29.29
2022-08-16T16:06:02.084Z,29.30
2022-08-16T16:08:31.499Z,29.17
2022-08-16T16:11:03.295Z,29.19
2022-08-16T16:13:32.016Z,29.20
2022-08-16T16:16:13.215Z,29.18
2022-08-16T16:18:46.012Z,29.17
2022-08-16T16:21:20.358Z,29.14
2022-08-16T16:23:54.733Z,29.06
2022-08-16T16:26:28.004Z,29.00
2022-08-16T16:29:07.830Z,28.99
2022-08-16T16:31:37.130Z,28.94
2022-08-16T16:34:08.042Z,28.92
2022-08-16T16:36:40.015Z,28.91
2022-08-16T16:39:16.109Z,28.89
2022-08-16T16:41:44.140Z,28.85
2022-08-16T16:44:18.210Z,28.83
2022-08-16T16:47:00.356Z,28.79
2022-08-16T16:49:28.518Z,28.82
2022-08-16T16:52:00.014Z,28.81
2022-08-16T16:54:38.544Z,28.79
2022-08-16T16:57:27.070Z,28.71
2022-08-16T16:59:56.615Z,28.63
2022-08-16T17:02:46.273Z,28.68
2022-08-16T17:05:12.555Z,28.65
2022-08-16T17:07:41.570Z,28.60
2022-08-16T17:10:10.496Z,28.55
2022-08-16T17:12:47.058Z,28.47
2022-08-16T17:15:16.317Z,28.44
2022-08-16T17:17:59.679Z,28.34
2022-08-16T17:20:29.826Z,28.19
2022-08-16T17:23:08.027Z,28.15
2022-08-16T17:25:41.099Z,28.11
2022-08-16T17:28:57.812Z,28.09
2022-08-16T17:30:59.586Z,28.08
2022-08-16T17:33:37.064Z,28.04
2022-08-16T17:36:36.631Z,27.99
2022-08-16T17:39:07.756Z,27.86
2022-08-16T17:41:37.202Z,27.78
2022-08-16T17:44:06.466Z,27.71
2022-08-16T17:46:41.268Z,27.65
2022-08-16T17:49:18.852Z,27.59
2022-08-16T17:51:47.057Z,27.50
2022-08-16T17:54:20.613Z,27.46
2022-08-16T17:57:00.579Z,27.37
2022-08-16T17:59:30.146Z,27.28
2022-08-16T18:01:59.026Z,27.21
2022-08-16T18:04:45.219Z,27.09
2022-08-16T18:07:15.108Z,27.03
2022-08-16T18:09:43.543Z,27.02
2022-08-16T18:15:27.154Z,26.89
2022-08-16T18:17:55.341Z,26.84
2022-08-16T18:20:43.380Z,26.81
2022-08-16T18:23:19.248Z,26.74
2022-08-16T18:25:58.890Z,26.70
2022-08-16T18:28:28.383Z,26.68
2022-08-16T18:31:01.237Z,26.62
2022-08-16T18:33:37.663Z,26.58
2022-08-16T18:36:20.093Z,26.52
2022-08-16T18:38:50.902Z,26.49
2022-08-16T18:41:20.422Z,26.49
2022-08-16T18:44:14.262Z,26.45
2022-08-16T18:46:38.719Z,26.36
2022-08-16T18:49:18.065Z,26.31
2022-08-16T18:51:51.488Z,26.25
2022-08-16T18:54:24.682Z,26.20
2022-08-16T18:56:56.438Z,26.19
2022-08-16T18:59:31.006Z,26.19
2022-08-16T19:02:56.860Z,26.17
2022-08-16T19:05:00.820Z,26.14
2022-08-16T19:07:30.473Z,26.14
2022-08-16T19:10:01.734Z,26.11
2022-08-16T19:12:37.740Z,26.03
2022-08-16T19:15:23.291Z,25.97
2022-08-16T19:17:51.305Z,25.93
2022-08-16T19:20:23.424Z,25.93
2022-08-16T19:23:10.609Z,25.87
2022-08-16T19:25:46.699Z,25.88
2022-08-16T19:28:57.670Z,25.83
2022-08-16T19:31:33.103Z,25.84
2022-08-16T19:34:02.588Z,25.85
2022-08-16T19:36:36.044Z,25.91
2022-08-16T19:39:11.749Z,25.97
2022-08-16T19:41:44.247Z,26.01
2022-08-16T19:44:13.015Z,26.03
2022-08-16T19:46:45.169Z,26.04
2022-08-16T19:49:16.306Z,26.05
2022-08-16T19:51:46.402Z,26.06
2022-08-16T19:54:18.076Z,26.03
2022-08-16T19:56:46.061Z,26.01
2022-08-16T19:59:20.091Z,26.01
2022-08-16T20:01:52.421Z,25.99
2022-08-16T20:04:22.497Z,25.99
2022-08-16T20:06:52.499Z,25.98
2022-08-16T20:09:22.003Z,25.95
2022-08-16T20:11:52.471Z,25.89
2022-08-16T20:14:25.623Z,25.84
2022-08-16T20:16:56.764Z,25.77
2022-08-16T20:19:27.823Z,25.70
2022-08-16T20:21:56.859Z,25.69
2022-08-16T20:24:35.671Z,25.65
2022-08-16T20:27:09.844Z,25.66
2022-08-16T20:29:40.259Z,25.63
2022-08-16T20:32:12.174Z,25.58
2022-08-16T20:34:41.662Z,25.52
2022-08-16T20:37:13.133Z,25.51
2022-08-16T20:39:44.462Z,25.52
2022-08-16T20:42:31.415Z,25.52
2022-08-16T20:44:59.311Z,25.47
2022-08-16T20:47:27.191Z,25.42
2022-08-16T20:49:55.779Z,25.32
2022-08-16T20:52:25.501Z,25.28
2022-08-16T20:54:55.740Z,25.31
2022-08-16T20:57:24.365Z,25.35
2022-08-16T20:59:52.381Z,25.34
2022-08-16T21:02:26.625Z,25.35
2022-08-16T21:04:54.887Z,25.29
2022-08-16T21:07:26.539Z,25.26
2022-08-16T21:09:54.560Z,25.22
2022-08-16T21:12:22.396Z,25.19
2022-08-16T21:14:51.096Z,25.18
2022-08-16T21:17:19.330Z,25.15
2022-08-16T21:19:47.135Z,25.14
2022-08-16T21:22:24.207Z,25.11
2022-08-16T21:24:54.201Z,25.04
2022-08-16T21:27:24.225Z,24.99
2022-08-16T21:29:55.810Z,24.97
2022-08-16T21:32:35.548Z,24.97
2022-08-16T21:35:06.724Z,24.95
2022-08-16T21:37:34.539Z,24.89
2022-08-16T21:40:02.624Z,24.86
2022-08-16T21:42:36.125Z,24.81
2022-08-16T21:45:05.219Z,24.79
2022-08-16T21:47:32.868Z,24.80
2022-08-16T21:50:00.640Z,24.79
2022-08-16T21:52:28.438Z,24.77
2022-08-16T21:54:57.168Z,24.76
2022-08-16T21:57:25.266Z,24.77
2022-08-16T21:59:56.661Z,24.75
2022-08-16T22:02:35.743Z,24.71
2022-08-16T22:05:07.738Z,24.70
2022-08-16T22:07:35.801Z,24.70
2022-08-16T22:10:27.683Z,24.69
2022-08-16T22:12:54.710Z,24.64
2022-08-16T22:15:26.079Z,24.58
2022-08-16T22:17:57.698Z,24.62
2022-08-16T22:20:29.013Z,24.59
2022-08-16T22:23:23.748Z,24.56
2022-08-16T22:25:53.958Z,24.50
2022-08-16T22:28:23.942Z,24.49
2022-08-16T22:30:51.788Z,24.47
2022-08-16T22:33:22.732Z,24.45
2022-08-16T22:35:57.613Z,24.40
2022-08-16T22:38:53.485Z,24.37
2022-08-16T22:41:18.841Z,24.30
2022-08-16T22:43:49.940Z,24.30
2022-08-16T22:46:19.902Z,24.25
2022-08-16T22:48:50.785Z,24.21
2022-08-16T22:51:21.559Z,24.14
2022-08-16T22:53:49.471Z,24.13
2022-08-16T22:56:18.047Z,24.11
2022-08-16T22:58:46.602Z,24.07
2022-08-16T23:01:18.993Z,24.12
2022-08-16T23:03:47.011Z,24.13
2022-08-16T23:06:17.513Z,24.15
2022-08-16T23:08:45.576Z,24.11
2022-08-16T23:11:21.387Z,24.12
2022-08-16T23:13:54.769Z,24.12
2022-08-16T23:16:34.668Z,24.10
2022-08-16T23:19:05.560Z,24.05
2022-08-16T23:21:35.677Z,24.07
2022-08-16T23:24:03.725Z,24.04
2022-08-16T23:26:46.369Z,24.06
2022-08-16T23:29:25.386Z,24.00
2022-08-16T23:32:08.510Z,23.99
2022-08-16T23:34:36.329Z,23.99
2022-08-16T23:37:04.070Z,24.03
2022-08-16T23:39:32.061Z,24.07
2022-08-16T23:42:00.269Z,24.10
2022-08-16T23:44:55.350Z,24.10
2022-08-16T23:47:16.378Z,24.07
2022-08-16T23:50:00.973Z,24.06
2022-08-16T23:52:45.724Z,24.03
2022-08-16T23:55:23.376Z,24.02
2022-08-16T23:57:53.182Z,23.95
